createdAt,value
2022-09-17T00:02:56.536Z,10.92
2022-09-17T00:08:02.697Z,10.96
2022-09-17T00:13:10.497Z,12.23
2022-09-17T00:18:16.581Z,11.85
2022-09-17T00:23:23.100Z,14.82
2022-09-17T00:29:20.752Z,11.83
2022-09-17T00:34:27.352Z,13.25
2022-09-17T00:39:33.465Z,15.76
2022-09-17T00:44:39.691Z,10.33
2022-09-17T00:49:48.314Z,10.34
2022-09-17T00:54:55.025Z,12.78
2022-09-17T01:00:01.159Z,12.96
2022-09-17T01:05:07.424Z,16.01
2022-09-17T01:10:13.834Z,15.78
2022-09-17T01:15:20.015Z,13.35
2022-09-17T01:20:26.463Z,16.02
2022-09-17T01:25:33.020Z,15.27
2022-09-17T01:30:39.104Z,15.82
2022-09-17T01:35:46.208Z,13.22
2022-09-17T01:40:52.935Z,14.16
2022-09-17T01:45:59.157Z,13.91
2022-09-17T01:51:05.306Z,16.88
2022-09-17T01:56:11.746Z,15.22
2022-09-17T02:01:18.237Z,16.06
2022-09-17T02:06:24.724Z,16.59
2022-09-17T02:11:30.984Z,13.63
2022-09-17T02:16:37.172Z,14.43
2022-09-17T02:21:43.385Z,11.78
2022-09-17T02:26:49.645Z,14.93
2022-09-17T02:31:55.827Z,13.77
2022-09-17T02:37:02.013Z,13.70
2022-09-17T02:42:08.450Z,13.98
2022-09-17T02:47:14.747Z,16.14
2022-09-17T02:52:20.853Z,13.29
2022-09-17T02:57:26.962Z,14.24
2022-09-17T03:02:33.161Z,14.45
2022-09-17T03:07:39.342Z,14.54
2022-09-17T03:12:45.443Z,10.34
2022-09-17T03:17:53.499Z,13.47
2022-09-17T03:22:57.749Z,13.16
2022-09-17T03:28:04.323Z,14.38
2022-09-17T03:33:10.521Z,13.59
2022-09-17T03:38:16.828Z,11.51
2022-09-17T03:43:22.881Z,12.15
2022-09-17T03:48:29.019Z,14.55
2022-09-17T03:53:35.115Z,13.10
2022-09-17T03:58:41.381Z,9.09
2022-09-17T04:03:47.939Z,10.68
2022-09-17T04:08:55.022Z,9.75
2022-09-17T04:14:01.100Z,10.18
2022-09-17T04:19:07.251Z,11.41
2022-09-17T04:24:13.537Z,11.61
2022-09-17T04:29:19.974Z,11.53
2022-09-17T04:34:25.999Z,11.28
2022-09-17T04:39:32.200Z,13.53
2022-09-17T04:44:38.426Z,11.59
2022-09-17T04:49:44.586Z,12.02
2022-09-17T04:54:50.793Z,14.37
2022-09-17T04:59:56.950Z,12.34
2022-09-17T05:05:03.199Z,10.26
2022-09-17T05:10:09.535Z,8.72
2022-09-17T05:15:15.649Z,11.61
2022-09-17T05:20:22.137Z,11.16
2022-09-17T05:25:28.328Z,9.85
2022-09-17T05:30:35.223Z,10.82
2022-09-17T05:35:41.609Z,7.44
2022-09-17T05:40:47.827Z,9.28
2022-09-17T05:45:53.894Z,12.80
2022-09-17T05:51:00.304Z,11.26
2022-09-17T05:56:06.474Z,9.82
2022-09-17T06:01:12.775Z,10.14
2022-09-17T06:06:18.896Z,13.82
2022-09-17T06:11:25.480Z,12.18
2022-09-17T06:16:31.706Z,10.57
2022-09-17T06:21:37.839Z,9.02
2022-09-17T06:26:44.269Z,10.63
2022-09-17T06:31:50.491Z,13.77
2022-09-17T06:36:57.019Z,10.76
2022-09-17T06:42:03.294Z,13.26
2022-09-17T06:47:09.380Z,9.30
2022-09-17T06:52:15.523Z,10.30
2022-09-17T06:57:21.622Z,12.78
2022-09-17T07:02:28.028Z,14.26
2022-09-17T07:07:34.219Z,12.14
2022-09-17T07:12:40.531Z,9.50
2022-09-17T07:17:46.721Z,13.72
2022-09-17T07:22:52.881Z,13.07
2022-09-17T07:27:59.114Z,14.09
2022-09-17T07:33:05.284Z,10.05
2022-09-17T07:38:11.458Z,15.00
2022-09-17T07:43:17.648Z,13.19
2022-09-17T07:48:24.081Z,12.88
2022-09-17T07:53:30.582Z,14.18
2022-09-17T07:58:36.762Z,12.67
2022-09-17T08:03:43.023Z,14.47
2022-09-17T08:08:49.229Z,9.85
2022-09-17T08:13:55.723Z,12.65
2022-09-17T08:19:01.934Z,12.91
2022-09-17T08:24:08.125Z,11.68
2022-09-17T08:29:14.269Z,13.28
2022-09-17T08:34:21.423Z,14.06
2022-09-17T08:39:27.495Z,16.01
2022-09-17T08:44:33.776Z,14.95
2022-09-17T08:49:39.832Z,14.17
2022-09-17T08:54:46.007Z,10.64
2022-09-17T08:59:52.437Z,10.35
2022-09-17T09:04:58.607Z,9.66
2022-09-17T09:10:04.692Z,11.50
2022-09-17T09:15:10.835Z,11.63
2022-09-17T09:20:17.008Z,9.84
2022-09-17T09:25:23.185Z,10.39
2022-09-17T09:30:29.253Z,11.54
2022-09-17T09:35:35.612Z,9.22
2022-09-17T09:40:41.691Z,8.10
2022-09-17T09:45:48.738Z,5.72
2022-09-17T09:51:06.196Z,9.42
2022-09-17T09:56:01.035Z,8.31
2022-09-17T10:01:07.151Z,6.74
2022-09-17T10:06:13.437Z,6.27
2022-09-17T10:11:19.512Z,7.58
2022-09-17T10:16:26.240Z,7.53
2022-09-17T10:21:33.033Z,7.19
2022-09-17T10:26:39.189Z,4.76
2022-09-17T10:31:45.423Z,7.38
2022-09-17T10:36:51.694Z,9.68
2022-09-17T10:41:57.925Z,9.32
2022-09-17T10:47:04.619Z,8.96
2022-09-17T10:52:10.756Z,10.65
2022-09-17T10:57:17.203Z,4.50
2022-09-17T11:02:23.461Z,7.06
2022-09-17T11:07:29.561Z,8.88
2022-09-17T11:12:35.643Z,7.08
2022-09-17T11:17:42.278Z,5.65
2022-09-17T11:22:48.439Z,7.00
2022-09-17T11:27:54.666Z,5.45
2022-09-17T11:33:01.181Z,7.51
2022-09-17T11:38:07.397Z,5.93
2022-09-17T11:43:13.626Z,9.70
2022-09-17T11:48:19.986Z,5.02
2022-09-17T11:53:26.407Z,6.89
2022-09-17T11:58:32.715Z,6.48
2022-09-17T12:03:38.855Z,9.64
2022-09-17T12:09:30.912Z,9.95
2022-09-17T12:14:37.489Z,11.82
2022-09-17T12:19:46.234Z,8.24
2022-09-17T12:24:52.518Z,11.50
2022-09-17T12:30:00.652Z,8.96
2022-09-17T12:35:04.462Z,9.22
2022-09-17T12:40:10.878Z,8.55
2022-09-17T12:45:17.054Z,13.00
2022-09-17T12:50:23.448Z,9.43
2022-09-17T12:55:29.953Z,12.78
2022-09-17T13:00:36.708Z,15.32
2022-09-17T13:05:42.774Z,12.83
2022-09-17T13:10:49.030Z,12.47
2022-09-17T13:15:55.542Z,9.54
2022-09-17T13:21:01.773Z,10.29
2022-09-17T13:26:07.965Z,9.21
2022-09-17T13:31:14.325Z,11.67
2022-09-17T13:36:20.372Z,8.04
2022-09-17T13:41:27.061Z,9.50
2022-09-17T13:46:33.227Z,6.52
2022-09-17T13:51:39.321Z,6.66
2022-09-17T13:56:45.427Z,5.82
2022-09-17T14:01:52.817Z,7.30
2022-09-17T14:06:58.918Z,10.50
2022-09-17T14:12:05.777Z,12.82
2022-09-17T14:17:11.811Z,13.31
2022-09-17T14:22:18.358Z,10.87
2022-09-17T14:27:24.478Z,17.06
2022-09-17T14:32:30.697Z,14.83
2022-09-17T14:37:36.768Z,14.89
2022-09-17T14:42:43.275Z,14.53
2022-09-17T14:47:49.393Z,13.78
2022-09-17T14:52:55.629Z,13.51
2022-09-17T14:58:02.041Z,12.53
2022-09-17T15:03:08.396Z,11.30
2022-09-17T15:08:14.545Z,9.19
2022-09-17T15:13:20.674Z,11.03
2022-09-17T15:18:26.749Z,14.66
2022-09-17T15:23:33.511Z,12.40
2022-09-17T15:28:39.587Z,12.50
2022-09-17T15:33:45.764Z,13.23
2022-09-17T15:38:51.914Z,13.84
2022-09-17T15:44:13.269Z,16.00
2022-09-17T15:49:04.083Z,12.82
2022-09-17T15:54:13.390Z,13.98
2022-09-17T15:59:18.241Z,13.39
2022-09-17T16:04:21.694Z,15.69
2022-09-17T16:09:27.925Z,15.91
2022-09-17T16:14:34.233Z,14.66
2022-09-17T16:19:40.753Z,13.68
2022-09-17T16:24:47.581Z,17.08
2022-09-17T16:29:53.984Z,15.27
2022-09-17T16:35:00.531Z,16.09
2022-09-17T16:40:06.944Z,16.15
2022-09-17T16:45:12.994Z,9.71
2022-09-17T16:50:19.244Z,14.37
2022-09-17T16:55:25.576Z,13.40
2022-09-17T17:00:32.138Z,10.89
2022-09-17T17:05:38.356Z,11.78
2022-09-17T17:10:44.762Z,9.80
2022-09-17T17:15:51.821Z,10.09
2022-09-17T17:20:57.857Z,13.73
2022-09-17T17:26:04.669Z,13.08
2022-09-17T17:31:11.250Z,11.93
2022-09-17T17:36:19.734Z,13.72
2022-09-17T17:41:25.849Z,13.55
2022-09-17T17:46:32.286Z,11.01
2022-09-17T17:51:38.395Z,15.32
2022-09-17T17:56:44.973Z,14.15
2022-09-17T18:01:51.336Z,16.17
2022-09-17T18:06:57.542Z,11.19
2022-09-17T18:12:03.658Z,10.56
2022-09-17T18:17:10.039Z,16.62
2022-09-17T18:22:16.458Z,12.65
2022-09-17T18:27:22.712Z,14.17
2022-09-17T18:32:29.194Z,13.70
2022-09-17T18:37:35.561Z,12.26
2022-09-17T18:42:42.035Z,13.90
2022-09-17T18:47:48.953Z,15.59
2022-09-17T18:52:55.121Z,14.93
2022-09-17T18:58:01.398Z,11.10
2022-09-17T19:03:08.315Z,10.05
2022-09-17T19:08:14.592Z,10.61
2022-09-17T19:13:21.496Z,11.00
2022-09-17T19:18:27.818Z,13.48
2022-09-17T19:23:33.967Z,10.61
2022-09-17T19:28:40.329Z,8.46
2022-09-17T19:33:46.481Z,10.45
2022-09-17T19:38:52.793Z,8.40
2022-09-17T19:43:59.006Z,12.45
2022-09-17T19:49:05.278Z,8.80
2022-09-17T19:54:11.514Z,9.27
2022-09-17T19:59:17.758Z,7.95
2022-09-17T20:04:24.049Z,9.49
2022-09-17T20:09:30.482Z,10.55
2022-09-17T20:14:37.120Z,7.79
2022-09-17T20:19:43.475Z,9.07
2022-09-17T20:24:51.196Z,9.94
2022-09-17T20:29:55.533Z,9.06
2022-09-17T20:35:01.710Z,6.97
2022-09-17T20:40:08.502Z,11.27
2022-09-17T20:45:14.660Z,10.54
2022-09-17T20:50:21.023Z,7.63
2022-09-17T20:55:27.483Z,9.32
2022-09-17T21:00:33.625Z,8.34
2022-09-17T21:05:39.802Z,8.24
2022-09-17T21:10:46.079Z,12.15
2022-09-17T21:15:52.196Z,10.28
2022-09-17T21:20:58.328Z,6.73
2022-09-17T21:26:04.448Z,8.71
2022-09-17T21:31:11.227Z,7.03
2022-09-17T21:36:17.324Z,7.17
2022-09-17T21:41:23.631Z,7.07
2022-09-17T21:46:30.370Z,7.68
2022-09-17T21:51:36.608Z,5.31
2022-09-17T21:56:42.678Z,6.88
2022-09-17T22:01:49.017Z,7.57
2022-09-17T22:06:55.109Z,9.16
2022-09-17T22:12:01.679Z,7.98
2022-09-17T22:17:07.838Z,5.44
2022-09-17T22:22:14.186Z,9.66
2022-09-17T22:27:20.268Z,8.13
2022-09-17T22:32:26.596Z,7.74
2022-09-17T22:37:33.007Z,5.46
2022-09-17T22:42:39.231Z,9.60
2022-09-17T22:47:45.413Z,7.64
2022-09-17T22:52:53.102Z,8.26
2022-09-17T22:57:59.655Z,9.92
2022-09-17T23:03:06.178Z,5.74
2022-09-17T23:08:12.342Z,5.86
2022-09-17T23:13:18.595Z,7.69
2022-09-17T23:18:25.165Z,7.15
2022-09-17T23:23:31.502Z,8.00
2022-09-17T23:28:37.654Z,5.77
2022-09-17T23:33:43.930Z,7.25
2022-09-17T23:38:50.122Z,6.01
2022-09-17T23:43:56.432Z,6.72
2022-09-17T23:49:02.498Z,4.87
2022-09-17T23:54:08.637Z,8.56
2022-09-17T23:59:14.834Z,9.36
